createdAt,value
2022-11-19T00:00:48.148Z,21.50
2022-11-19T00:05:50.967Z,20.95
2022-11-19T00:26:16.699Z,23.00
2022-11-19T00:31:19.588Z,25.35
2022-11-19T00:41:24.845Z,21.55
2022-11-19T00:46:30.232Z,19.92
2022-11-19T00:51:33.218Z,19.70
2022-11-19T00:56:35.942Z,16.73
2022-11-19T01:01:38.712Z,13.85
2022-11-19T01:06:41.604Z,19.60
2022-11-19T01:11:44.660Z,21.02
2022-11-19T01:16:47.597Z,20.45
2022-11-19T01:21:50.335Z,27.25
2022-11-19T01:26:53.000Z,21.58
2022-11-19T01:31:55.907Z,22.08
2022-11-19T01:36:58.629Z,15.57
2022-11-19T01:42:01.323Z,23.48
2022-11-19T01:47:04.066Z,22.52
2022-11-19T01:52:06.927Z,19.42
2022-11-19T02:02:13.866Z,24.02
2022-11-19T02:07:17.595Z,20.88
2022-11-19T02:12:45.735Z,20.40
2022-11-19T02:18:36.703Z,19.98
2022-11-19T02:24:07.170Z,21.60
2022-11-19T02:29:21.404Z,16.92
2022-11-19T02:34:30.144Z,17.02
2022-11-19T02:39:35.497Z,20.08
2022-11-19T02:45:02.610Z,14.82
2022-11-19T02:50:10.319Z,18.77
2022-11-19T02:55:19.352Z,20.45
2022-11-19T03:00:40.722Z,20.90
2022-11-19T03:05:46.831Z,19.25
2022-11-19T03:10:58.957Z,18.88
2022-11-19T03:16:22.588Z,21.13
2022-11-19T03:21:35.083Z,20.80
2022-11-19T03:26:46.274Z,21.67
2022-11-19T03:31:51.802Z,27.95
2022-11-19T03:36:57.018Z,16.15
2022-11-19T03:41:59.809Z,27.73
2022-11-19T03:47:23.929Z,25.77
2022-11-19T03:52:26.742Z,24.70
2022-11-19T03:57:29.522Z,25.17
2022-11-19T04:02:32.347Z,21.50
2022-11-19T04:07:35.080Z,22.77
2022-11-19T04:12:37.757Z,22.50
2022-11-19T04:17:40.479Z,23.83
2022-11-19T04:22:43.107Z,27.23
2022-11-19T04:27:46.949Z,22.37
2022-11-19T04:32:49.844Z,13.55
2022-11-19T04:37:52.509Z,26.27
2022-11-19T04:42:55.344Z,22.88
2022-11-19T04:47:58.006Z,24.07
2022-11-19T04:53:01.183Z,15.63
2022-11-19T04:58:04.075Z,19.35
2022-11-19T05:08:09.883Z,21.37
2022-11-19T05:13:12.931Z,21.48
2022-11-19T05:18:15.527Z,20.00
2022-11-19T05:23:18.292Z,23.70
2022-11-19T05:28:32.699Z,24.27
2022-11-19T05:33:40.938Z,19.42
2022-11-19T05:38:43.836Z,21.45
2022-11-19T05:43:46.504Z,15.83
2022-11-19T05:48:49.179Z,19.07
2022-11-19T05:53:52.017Z,18.23
2022-11-19T05:58:54.792Z,19.00
2022-11-19T06:03:57.667Z,12.80
2022-11-19T06:09:00.273Z,17.42
2022-11-19T06:14:03.396Z,11.30
2022-11-19T06:19:06.360Z,18.02
2022-11-19T06:24:09.078Z,15.52
2022-11-19T06:29:14.044Z,15.17
2022-11-19T06:34:16.736Z,12.43
2022-11-19T06:39:20.154Z,13.63
2022-11-19T06:49:26.032Z,10.60
2022-11-19T06:59:31.863Z,16.23
2022-11-19T07:04:34.590Z,13.93
2022-11-19T07:09:37.432Z,15.03
2022-11-19T07:14:40.093Z,13.27
2022-11-19T07:19:42.815Z,11.93
2022-11-19T07:24:45.484Z,13.00
2022-11-19T07:29:48.163Z,8.73
2022-11-19T07:34:50.869Z,11.07
2022-11-19T07:39:53.541Z,4.57
2022-11-19T07:44:56.389Z,12.17
2022-11-19T07:49:59.181Z,13.97
2022-11-19T07:55:01.977Z,13.07
2022-11-19T08:00:07.105Z,12.10
2022-11-19T08:05:16.122Z,14.23
2022-11-19T08:10:19.345Z,11.80
2022-11-19T08:15:21.984Z,10.93
2022-11-19T08:20:24.801Z,10.37
2022-11-19T08:25:27.701Z,11.23
2022-11-19T08:30:31.375Z,7.90
2022-11-19T08:35:34.133Z,13.02
2022-11-19T08:40:37.094Z,11.60
2022-11-19T08:45:40.236Z,10.40
2022-11-19T08:50:42.985Z,12.40
2022-11-19T08:55:51.318Z,11.73
2022-11-19T09:00:55.298Z,8.93
2022-11-19T09:06:01.374Z,14.07
2022-11-19T09:11:15.896Z,14.00
2022-11-19T09:16:18.861Z,14.95
2022-11-19T09:21:21.751Z,11.48
2022-11-19T09:26:24.468Z,12.00
2022-11-19T09:31:27.114Z,11.07
2022-11-19T09:36:29.794Z,11.75
2022-11-19T09:41:44.695Z,12.50
2022-11-19T09:46:57.033Z,11.98
2022-11-19T09:52:06.144Z,16.50
2022-11-19T09:57:12.486Z,10.45
2022-11-19T10:02:20.635Z,13.50
2022-11-19T10:07:29.258Z,11.48
2022-11-19T10:12:43.896Z,12.90
2022-11-19T10:17:49.558Z,11.27
2022-11-19T10:22:57.948Z,12.77
2022-11-19T10:28:15.320Z,11.73
2022-11-19T10:33:41.211Z,11.43
2022-11-19T10:38:58.040Z,16.08
2022-11-19T10:44:40.694Z,11.38
2022-11-19T10:49:44.090Z,11.10
2022-11-19T10:59:51.149Z,14.13
2022-11-19T11:05:17.335Z,15.00
2022-11-19T11:10:28.987Z,10.32
2022-11-19T11:15:32.386Z,16.00
2022-11-19T11:20:36.698Z,14.20
2022-11-19T11:25:41.072Z,15.18
2022-11-19T11:31:05.086Z,15.02
2022-11-19T11:36:09.305Z,13.60
2022-11-19T11:42:04.063Z,13.55
2022-11-19T11:46:56.584Z,13.88
2022-11-19T11:52:17.630Z,17.95
2022-11-19T11:57:22.597Z,17.58
2022-11-19T12:02:31.371Z,16.55
2022-11-19T12:07:55.444Z,14.10
2022-11-19T12:12:58.098Z,12.60
2022-11-19T12:18:10.342Z,16.87
2022-11-19T12:23:16.056Z,16.93
2022-11-19T12:28:37.482Z,20.77
2022-11-19T12:33:49.269Z,19.33
2022-11-19T12:39:26.925Z,13.43
2022-11-19T12:44:32.550Z,19.17
2022-11-19T12:49:40.752Z,17.13
2022-11-19T12:54:52.164Z,18.10
2022-11-19T13:00:12.280Z,19.23
2022-11-19T13:05:19.996Z,20.92
2022-11-19T13:10:28.725Z,22.08
2022-11-19T13:15:38.690Z,21.50
2022-11-19T13:20:54.551Z,21.63
2022-11-19T13:26:03.879Z,18.95
2022-11-19T13:31:13.664Z,21.65
2022-11-19T13:36:40.778Z,23.23
2022-11-19T13:42:07.451Z,19.85
2022-11-19T13:47:26.199Z,24.80
2022-11-19T13:52:40.114Z,26.30
2022-11-19T13:57:44.555Z,23.55
2022-11-19T14:03:05.744Z,29.77
2022-11-19T14:08:23.333Z,23.77
2022-11-19T14:13:50.885Z,27.13
2022-11-19T14:19:13.675Z,31.25
2022-11-19T14:24:44.068Z,27.25
2022-11-19T14:29:46.602Z,26.85
2022-11-19T14:35:01.653Z,24.15
2022-11-19T14:40:10.445Z,20.30
2022-11-19T14:45:13.060Z,27.60
2022-11-19T14:50:29.285Z,27.80
2022-11-19T14:55:34.507Z,16.20
2022-11-19T15:00:42.214Z,24.00
2022-11-19T15:05:46.529Z,27.40
2022-11-19T15:11:09.860Z,22.48
2022-11-19T15:16:27.722Z,23.13
2022-11-19T15:21:58.067Z,23.63
2022-11-19T15:27:18.725Z,27.88
2022-11-19T15:32:39.717Z,23.52
2022-11-19T15:37:52.080Z,20.27
2022-11-19T15:43:07.260Z,28.85
2022-11-19T15:48:45.790Z,24.92
2022-11-19T15:54:11.445Z,20.08
2022-11-19T15:59:15.348Z,25.20
2022-11-19T16:09:23.932Z,21.00
2022-11-19T16:14:47.900Z,24.60
2022-11-19T16:20:06.934Z,21.92
2022-11-19T16:25:15.327Z,27.13
2022-11-19T16:30:24.310Z,24.73
2022-11-19T16:35:32.049Z,22.38
2022-11-19T16:40:55.183Z,25.92
2022-11-19T16:51:35.611Z,24.35
2022-11-19T16:56:48.121Z,17.88
2022-11-19T17:01:59.899Z,24.63
2022-11-19T17:07:02.933Z,22.40
2022-11-19T17:12:22.727Z,23.23
2022-11-19T17:17:29.229Z,24.13
2022-11-19T17:22:34.867Z,26.33
2022-11-19T17:27:38.649Z,20.65
2022-11-19T17:33:02.109Z,17.08
2022-11-19T17:43:35.323Z,24.92
2022-11-19T17:48:41.485Z,17.13
2022-11-19T17:53:44.515Z,18.55
2022-11-19T17:58:47.820Z,24.33
2022-11-19T18:03:50.577Z,23.30
2022-11-19T18:08:53.388Z,23.00
2022-11-19T18:13:58.345Z,22.92
2022-11-19T18:19:01.128Z,24.65
2022-11-19T18:24:04.065Z,15.38
2022-11-19T18:29:07.046Z,21.67
2022-11-19T18:34:15.062Z,22.38
2022-11-19T18:39:17.878Z,18.70
2022-11-19T18:44:35.519Z,24.52
2022-11-19T18:49:38.836Z,16.65
2022-11-19T18:54:41.596Z,20.00
2022-11-19T18:59:44.562Z,20.65
2022-11-19T19:04:51.073Z,19.98
2022-11-19T19:09:54.011Z,19.42
2022-11-19T19:14:57.605Z,21.58
2022-11-19T19:20:00.252Z,19.92
2022-11-19T19:25:05.451Z,15.93
2022-11-19T19:30:09.974Z,19.38
2022-11-19T19:35:12.830Z,17.13
2022-11-19T19:40:15.704Z,18.13
2022-11-19T19:45:18.405Z,19.58
2022-11-19T19:50:21.062Z,23.45
2022-11-19T19:55:23.702Z,21.65
2022-11-19T20:00:26.428Z,26.33
2022-11-19T20:05:29.076Z,18.67
2022-11-19T20:10:32.745Z,15.25
2022-11-19T20:15:35.548Z,17.00
2022-11-19T20:20:38.289Z,16.40
2022-11-19T20:25:40.956Z,21.40
2022-11-19T20:30:43.662Z,17.38
2022-11-19T20:35:52.868Z,21.70
2022-11-19T20:40:57.934Z,17.38
2022-11-19T20:46:07.935Z,19.60
2022-11-19T20:51:11.135Z,13.90
2022-11-19T20:56:14.809Z,13.67
2022-11-19T21:01:17.499Z,21.05
2022-11-19T21:06:20.196Z,19.00
2022-11-19T21:11:22.895Z,18.88
2022-11-19T21:16:26.282Z,22.10
2022-11-19T21:21:29.056Z,20.83
2022-11-19T21:26:31.856Z,25.40
2022-11-19T21:31:39.366Z,18.33
2022-11-19T21:36:43.240Z,19.58
2022-11-19T21:41:45.949Z,21.23
2022-11-19T21:46:48.801Z,19.30
2022-11-19T21:51:51.535Z,23.30
2022-11-19T21:56:54.192Z,20.88
2022-11-19T22:01:56.808Z,21.20
2022-11-19T22:06:59.555Z,17.05
2022-11-19T22:12:02.244Z,21.92
2022-11-19T22:17:05.079Z,19.55
2022-11-19T22:22:07.810Z,17.25
2022-11-19T22:27:10.524Z,17.10
2022-11-19T22:32:13.438Z,18.08
2022-11-19T22:37:16.854Z,14.95
2022-11-19T22:42:19.576Z,11.68
2022-11-19T22:47:22.202Z,7.95
2022-11-19T22:52:25.106Z,7.60
2022-11-19T22:57:28.314Z,6.78
2022-11-19T23:02:30.943Z,9.25
2022-11-19T23:07:33.955Z,8.73
2022-11-19T23:12:56.993Z,6.93
2022-11-19T23:17:59.610Z,7.60
2022-11-19T23:23:02.319Z,5.07
2022-11-19T23:28:05.236Z,6.67
2022-11-19T23:33:07.888Z,6.50
2022-11-19T23:38:10.567Z,8.75
2022-11-19T23:43:13.281Z,3.80
2022-11-19T23:48:17.694Z,6.93
2022-11-19T23:53:20.348Z,6.18
2022-11-19T23:58:23.423Z,4.80
